sensor_id;sensor_type;location;lat;lon;timestamp;temperature;humidity
10175;DHT22;18221;38.704;0.152;2023-01-15T00:05:31;12.00;99.90
10175;DHT22;18221;38.704;0.152;2023-01-15T00:08:02;12.00;99.90
10175;DHT22;18221;38.704;0.152;2023-01-15T00:10:30;12.00;99.90
10175;DHT22;18221;38.704;0.152;2023-01-15T00:12:59;12.00;99.90
10175;DHT22;18221;38.704;0.152;2023-01-15T00:15:27;12.00;99.90
10175;DHT22;18221;38.704;0.152;2023-01-15T00:17:56;12.00;99.90
10175;DHT22;18221;38.704;0.152;2023-01-15T00:20:25;11.90;99.90
10175;DHT22;18221;38.704;0.152;2023-01-15T00:22:55;11.60;99.90
10175;DHT22;18221;38.704;0.152;2023-01-15T00:25:23;11.90;99.90
10175;DHT22;18221;38.704;0.152;2023-01-15T00:28:08;11.90;99.90
10175;DHT22;18221;38.704;0.152;2023-01-15T00:30:40;12.00;99.90
10175;DHT22;18221;38.704;0.152;2023-01-15T00:33:09;12.00;99.90
10175;DHT22;18221;38.704;0.152;2023-01-15T00:35:37;12.00;99.90
10175;DHT22;18221;38.704;0.152;2023-01-15T00:38:07;12.00;99.90
10175;DHT22;18221;38.704;0.152;2023-01-15T00:40:36;12.00;99.90
10175;DHT22;18221;38.704;0.152;2023-01-15T00:43:04;12.00;99.90
10175;DHT22;18221;38.704;0.152;2023-01-15T00:45:33;12.00;99.90
10175;DHT22;18221;38.704;0.152;2023-01-15T00:48:01;12.00;99.90
10175;DHT22;18221;38.704;0.152;2023-01-15T00:50:30;12.00;99.90
10175;DHT22;18221;38.704;0.152;2023-01-15T00:52:58;12.10;99.90
10175;DHT22;18221;38.704;0.152;2023-01-15T00:55:28;12.10;99.90
10175;DHT22;18221;38.704;0.152;2023-01-15T00:57:57;12.10;99.90
10175;DHT22;18221;38.704;0.152;2023-01-15T01:00:25;12.10;99.90
10175;DHT22;18221;38.704;0.152;2023-01-15T01:02:55;12.10;99.90
10175;DHT22;18221;38.704;0.152;2023-01-15T01:05:24;12.00;99.90
10175;DHT22;18221;38.704;0.152;2023-01-15T01:07:52;12.00;99.90
10175;DHT22;18221;38.704;0.152;2023-01-15T01:10:20;12.00;99.90
10175;DHT22;18221;38.704;0.152;2023-01-15T01:12:51;12.00;99.90
10175;DHT22;18221;38.704;0.152;2023-01-15T01:15:20;12.00;99.90
10175;DHT22;18221;38.704;0.152;2023-01-15T01:17:49;12.00;99.90
10175;DHT22;18221;38.704;0.152;2023-01-15T01:20:18;11.90;99.90
10175;DHT22;18221;38.704;0.152;2023-01-15T01:22:48;11.90;99.90
10175;DHT22;18221;38.704;0.152;2023-01-15T01:25:16;11.90;99.90
10175;DHT22;18221;38.704;0.152;2023-01-15T01:27:45;11.90;99.90
10175;DHT22;18221;38.704;0.152;2023-01-15T01:30:16;11.80;99.90
10175;DHT22;18221;38.704;0.152;2023-01-15T01:32:45;11.80;99.90
10175;DHT22;18221;38.704;0.152;2023-01-15T01:35:13;11.80;99.90
10175;DHT22;18221;38.704;0.152;2023-01-15T01:37:42;11.70;99.90
10175;DHT22;18221;38.704;0.152;2023-01-15T01:40:11;11.70;99.90
10175;DHT22;18221;38.704;0.152;2023-01-15T01:42:40;11.70;99.90
10175;DHT22;18221;38.704;0.152;2023-01-15T01:45:20;11.60;99.90
10175;DHT22;18221;38.704;0.152;2023-01-15T01:47:51;11.70;99.90
10175;DHT22;18221;38.704;0.152;2023-01-15T01:50:23;11.60;99.90
10175;DHT22;18221;38.704;0.152;2023-01-15T01:52:55;11.60;99.90
10175;DHT22;18221;38.704;0.152;2023-01-15T01:55:28;11.60;99.90
10175;DHT22;18221;38.704;0.152;2023-01-15T01:58:01;11.60;99.90
10175;DHT22;18221;38.704;0.152;2023-01-15T02:00:35;11.60;99.90
10175;DHT22;18221;38.704;0.152;2023-01-15T02:03:08;11.50;99.90
10175;DHT22;18221;38.704;0.152;2023-01-15T02:05:39;11.50;99.90
10175;DHT22;18221;38.704;0.152;2023-01-15T02:08:12;11.50;99.90
10175;DHT22;18221;38.704;0.152;2023-01-15T02:10:41;11.50;99.90
10175;DHT22;18221;38.704;0.152;2023-01-15T02:13:15;11.50;99.90
10175;DHT22;18221;38.704;0.152;2023-01-15T02:15:56;11.40;99.90
10175;DHT22;18221;38.704;0.152;2023-01-15T02:18:35;11.40;99.90
10175;DHT22;18221;38.704;0.152;2023-01-15T02:21:17;11.40;99.90
10175;DHT22;18221;38.704;0.152;2023-01-15T02:24:06;11.40;99.90
10175;DHT22;18221;38.704;0.152;2023-01-15T02:26:59;11.40;99.90
10175;DHT22;18221;38.704;0.152;2023-01-15T02:29:44;11.40;99.90
10175;DHT22;18221;38.704;0.152;2023-01-15T02:32:22;11.40;99.90
10175;DHT22;18221;38.704;0.152;2023-01-15T02:35:01;11.40;99.90
10175;DHT22;18221;38.704;0.152;2023-01-15T02:37:36;11.40;99.90
10175;DHT22;18221;38.704;0.152;2023-01-15T02:40:10;11.40;99.90
10175;DHT22;18221;38.704;0.152;2023-01-15T02:42:43;11.40;99.90
10175;DHT22;18221;38.704;0.152;2023-01-15T02:45:16;11.40;99.90
10175;DHT22;18221;38.704;0.152;2023-01-15T02:47:53;11.40;99.90
10175;DHT22;18221;38.704;0.152;2023-01-15T02:50:26;11.40;99.90
10175;DHT22;18221;38.704;0.152;2023-01-15T02:53:04;11.50;99.90
10175;DHT22;18221;38.704;0.152;2023-01-15T02:55:38;11.50;99.90
10175;DHT22;18221;38.704;0.152;2023-01-15T02:58:15;11.50;99.90
10175;DHT22;18221;38.704;0.152;2023-01-15T03:00:49;11.50;99.90
10175;DHT22;18221;38.704;0.152;2023-01-15T03:03:24;11.50;99.90
10175;DHT22;18221;38.704;0.152;2023-01-15T03:06:04;11.50;99.90
10175;DHT22;18221;38.704;0.152;2023-01-15T03:08:37;11.40;99.90
10175;DHT22;18221;38.704;0.152;2023-01-15T03:11:08;11.40;99.90
10175;DHT22;18221;38.704;0.152;2023-01-15T03:13:45;11.30;99.90
10175;DHT22;18221;38.704;0.152;2023-01-15T03:16:24;11.40;99.90
10175;DHT22;18221;38.704;0.152;2023-01-15T03:19:04;11.30;99.90
10175;DHT22;18221;38.704;0.152;2023-01-15T03:21:45;11.40;99.90
10175;DHT22;18221;38.704;0.152;2023-01-15T03:24:20;11.40;99.90
10175;DHT22;18221;38.704;0.152;2023-01-15T03:26:54;11.40;99.90
10175;DHT22;18221;38.704;0.152;2023-01-15T03:29:27;11.40;99.90
10175;DHT22;18221;38.704;0.152;2023-01-15T03:31:59;11.40;99.90
10175;DHT22;18221;38.704;0.152;2023-01-15T03:34:32;11.40;99.90
10175;DHT22;18221;38.704;0.152;2023-01-15T03:37:07;11.40;99.90
10175;DHT22;18221;38.704;0.152;2023-01-15T03:39:36;11.40;99.90
10175;DHT22;18221;38.704;0.152;2023-01-15T03:42:15;11.50;99.90
10175;DHT22;18221;38.704;0.152;2023-01-15T03:44:57;11.40;99.90
10175;DHT22;18221;38.704;0.152;2023-01-15T03:47:38;11.40;99.90
10175;DHT22;18221;38.704;0.152;2023-01-15T03:50:18;11.40;99.90
10175;DHT22;18221;38.704;0.152;2023-01-15T03:53:01;11.40;99.90
10175;DHT22;18221;38.704;0.152;2023-01-15T03:55:42;11.30;99.90
10175;DHT22;18221;38.704;0.152;2023-01-15T03:58:23;11.40;99.90
10175;DHT22;18221;38.704;0.152;2023-01-15T04:00:58;11.40;99.90
10175;DHT22;18221;38.704;0.152;2023-01-15T04:03:32;11.40;99.90
10175;DHT22;18221;38.704;0.152;2023-01-15T04:06:02;11.40;99.90
10175;DHT22;18221;38.704;0.152;2023-01-15T04:08:35;11.40;99.90
10175;DHT22;18221;38.704;0.152;2023-01-15T04:11:06;11.40;99.90
10175;DHT22;18221;38.704;0.152;2023-01-15T04:13:34;11.40;99.90
10175;DHT22;18221;38.704;0.152;2023-01-15T04:16:05;11.40;99.90
10175;DHT22;18221;38.704;0.152;2023-01-15T04:18:33;11.40;99.90
10175;DHT22;18221;38.704;0.152;2023-01-15T04:21:02;11.40;99.90
10175;DHT22;18221;38.704;0.152;2023-01-15T04:23:31;11.50;99.90
10175;DHT22;18221;38.704;0.152;2023-01-15T04:25:59;11.50;99.90
10175;DHT22;18221;38.704;0.152;2023-01-15T04:28:27;11.50;99.90
10175;DHT22;18221;38.704;0.152;2023-01-15T04:30:56;11.60;99.90
10175;DHT22;18221;38.704;0.152;2023-01-15T04:33:27;11.50;99.90
10175;DHT22;18221;38.704;0.152;2023-01-15T04:35:58;11.50;99.90
10175;DHT22;18221;38.704;0.152;2023-01-15T04:38:30;11.50;99.90
10175;DHT22;18221;38.704;0.152;2023-01-15T04:41:00;11.40;99.90
10175;DHT22;18221;38.704;0.152;2023-01-15T04:43:46;11.50;99.90
10175;DHT22;18221;38.704;0.152;2023-01-15T04:46:32;11.50;99.90
10175;DHT22;18221;38.704;0.152;2023-01-15T04:49:05;11.50;99.90
10175;DHT22;18221;38.704;0.152;2023-01-15T04:51:36;11.50;99.90
10175;DHT22;18221;38.704;0.152;2023-01-15T04:54:06;11.50;99.90
10175;DHT22;18221;38.704;0.152;2023-01-15T04:56:38;11.40;99.90
10175;DHT22;18221;38.704;0.152;2023-01-15T04:59:07;11.40;99.90
10175;DHT22;18221;38.704;0.152;2023-01-15T05:01:37;11.40;99.90
10175;DHT22;18221;38.704;0.152;2023-01-15T05:04:07;11.30;99.90
10175;DHT22;18221;38.704;0.152;2023-01-15T05:06:36;11.30;99.90
10175;DHT22;18221;38.704;0.152;2023-01-15T05:09:05;11.40;99.90
10175;DHT22;18221;38.704;0.152;2023-01-15T05:11:35;11.40;99.90
10175;DHT22;18221;38.704;0.152;2023-01-15T05:14:04;11.40;99.90
10175;DHT22;18221;38.704;0.152;2023-01-15T05:16:35;11.50;99.90
10175;DHT22;18221;38.704;0.152;2023-01-15T05:19:04;11.50;99.90
10175;DHT22;18221;38.704;0.152;2023-01-15T05:21:38;11.50;99.90
10175;DHT22;18221;38.704;0.152;2023-01-15T05:24:09;11.60;99.90
10175;DHT22;18221;38.704;0.152;2023-01-15T05:26:40;11.70;99.90
10175;DHT22;18221;38.704;0.152;2023-01-15T05:29:10;11.80;99.90
10175;DHT22;18221;38.704;0.152;2023-01-15T05:31:40;11.70;99.90
10175;DHT22;18221;38.704;0.152;2023-01-15T05:34:10;11.80;99.90
10175;DHT22;18221;38.704;0.152;2023-01-15T05:36:41;11.80;99.90
10175;DHT22;18221;38.704;0.152;2023-01-15T05:39:09;11.90;99.90
10175;DHT22;18221;38.704;0.152;2023-01-15T05:41:38;12.00;99.90
10175;DHT22;18221;38.704;0.152;2023-01-15T05:44:17;12.00;99.90
10175;DHT22;18221;38.704;0.152;2023-01-15T05:46:47;12.10;99.90
10175;DHT22;18221;38.704;0.152;2023-01-15T05:49:19;12.10;99.90
10175;DHT22;18221;38.704;0.152;2023-01-15T05:51:50;12.10;99.90
10175;DHT22;18221;38.704;0.152;2023-01-15T05:54:21;11.30;99.90
10175;DHT22;18221;38.704;0.152;2023-01-15T05:56:52;12.20;99.90
10175;DHT22;18221;38.704;0.152;2023-01-15T05:59:23;12.30;99.90
10175;DHT22;18221;38.704;0.152;2023-01-15T06:01:52;12.30;99.90
10175;DHT22;18221;38.704;0.152;2023-01-15T06:04:22;12.40;99.90
10175;DHT22;18221;38.704;0.152;2023-01-15T06:06:53;12.50;99.90
10175;DHT22;18221;38.704;0.152;2023-01-15T06:09:23;12.60;99.90
10175;DHT22;18221;38.704;0.152;2023-01-15T06:11:53;12.70;99.90
10175;DHT22;18221;38.704;0.152;2023-01-15T06:14:21;12.70;99.90
10175;DHT22;18221;38.704;0.152;2023-01-15T06:16:50;12.70;99.90
10175;DHT22;18221;38.704;0.152;2023-01-15T06:19:19;12.70;99.90
10175;DHT22;18221;38.704;0.152;2023-01-15T06:21:47;12.30;99.90
10175;DHT22;18221;38.704;0.152;2023-01-15T06:24:17;12.70;99.90
10175;DHT22;18221;38.704;0.152;2023-01-15T06:27:07;12.80;99.90
10175;DHT22;18221;38.704;0.152;2023-01-15T06:29:35;12.70;99.90
10175;DHT22;18221;38.704;0.152;2023-01-15T06:32:04;12.40;99.90
10175;DHT22;18221;38.704;0.152;2023-01-15T06:34:32;12.80;99.90
10175;DHT22;18221;38.704;0.152;2023-01-15T06:37:01;12.70;99.90
10175;DHT22;18221;38.704;0.152;2023-01-15T06:39:31;12.70;99.90
10175;DHT22;18221;38.704;0.152;2023-01-15T06:41:59;12.60;99.90
10175;DHT22;18221;38.704;0.152;2023-01-15T06:44:45;12.70;99.90
10175;DHT22;18221;38.704;0.152;2023-01-15T06:47:30;12.90;99.90
10175;DHT22;18221;38.704;0.152;2023-01-15T06:49:59;13.00;99.90
10175;DHT22;18221;38.704;0.152;2023-01-15T06:52:29;13.10;99.90
10175;DHT22;18221;38.704;0.152;2023-01-15T06:54:59;13.20;99.90
10175;DHT22;18221;38.704;0.152;2023-01-15T06:57:27;13.20;99.90
10175;DHT22;18221;38.704;0.152;2023-01-15T06:59:56;13.40;99.90
10175;DHT22;18221;38.704;0.152;2023-01-15T07:02:24;13.50;99.90
10175;DHT22;18221;38.704;0.152;2023-01-15T07:04:52;13.30;99.90
10175;DHT22;18221;38.704;0.152;2023-01-15T07:07:21;13.30;99.90
10175;DHT22;18221;38.704;0.152;2023-01-15T07:09:50;13.30;99.90
10175;DHT22;18221;38.704;0.152;2023-01-15T07:12:21;13.30;99.90
10175;DHT22;18221;38.704;0.152;2023-01-15T07:14:50;13.40;99.90
10175;DHT22;18221;38.704;0.152;2023-01-15T07:17:19;13.40;99.90
10175;DHT22;18221;38.704;0.152;2023-01-15T07:19:48;13.50;99.90
10175;DHT22;18221;38.704;0.152;2023-01-15T07:22:16;13.60;99.90
10175;DHT22;18221;38.704;0.152;2023-01-15T07:24:45;13.50;99.90
10175;DHT22;18221;38.704;0.152;2023-01-15T07:27:13;13.50;99.90
10175;DHT22;18221;38.704;0.152;2023-01-15T07:29:43;13.40;99.90
10175;DHT22;18221;38.704;0.152;2023-01-15T07:32:13;13.30;99.90
10175;DHT22;18221;38.704;0.152;2023-01-15T07:34:41;13.30;99.90
10175;DHT22;18221;38.704;0.152;2023-01-15T07:37:10;13.40;99.90
10175;DHT22;18221;38.704;0.152;2023-01-15T07:39:38;13.60;99.90
10175;DHT22;18221;38.704;0.152;2023-01-15T07:42:09;13.50;99.90
10175;DHT22;18221;38.704;0.152;2023-01-15T07:44:56;13.60;99.90
10175;DHT22;18221;38.704;0.152;2023-01-15T07:47:41;13.50;99.90
10175;DHT22;18221;38.704;0.152;2023-01-15T07:50:27;13.60;99.90
10175;DHT22;18221;38.704;0.152;2023-01-15T07:52:56;13.60;99.90
10175;DHT22;18221;38.704;0.152;2023-01-15T07:55:24;13.60;99.90
10175;DHT22;18221;38.704;0.152;2023-01-15T07:57:53;13.60;99.90
10175;DHT22;18221;38.704;0.152;2023-01-15T08:00:24;13.70;99.90
10175;DHT22;18221;38.704;0.152;2023-01-15T08:02:52;13.70;99.90
10175;DHT22;18221;38.704;0.152;2023-01-15T08:05:21;13.70;99.90
10175;DHT22;18221;38.704;0.152;2023-01-15T08:07:49;13.60;99.90
10175;DHT22;18221;38.704;0.152;2023-01-15T08:10:18;13.70;99.90
10175;DHT22;18221;38.704;0.152;2023-01-15T08:12:49;13.80;99.90
10175;DHT22;18221;38.704;0.152;2023-01-15T08:15:38;13.90;99.90
10175;DHT22;18221;38.704;0.152;2023-01-15T08:18:10;14.00;99.90
10175;DHT22;18221;38.704;0.152;2023-01-15T08:20:39;14.00;99.90
10175;DHT22;18221;38.704;0.152;2023-01-15T08:23:07;14.00;99.90
10175;DHT22;18221;38.704;0.152;2023-01-15T08:25:36;14.00;99.90
10175;DHT22;18221;38.704;0.152;2023-01-15T08:28:04;14.00;99.90
10175;DHT22;18221;38.704;0.152;2023-01-15T08:30:35;13.90;99.90
10175;DHT22;18221;38.704;0.152;2023-01-15T08:33:03;13.90;99.90
10175;DHT22;18221;38.704;0.152;2023-01-15T08:35:32;13.90;99.90
10175;DHT22;18221;38.704;0.152;2023-01-15T08:38:03;14.00;99.90
10175;DHT22;18221;38.704;0.152;2023-01-15T08:40:33;14.00;99.90
10175;DHT22;18221;38.704;0.152;2023-01-15T08:43:22;14.00;99.90
10175;DHT22;18221;38.704;0.152;2023-01-15T08:45:54;14.10;99.90
10175;DHT22;18221;38.704;0.152;2023-01-15T08:48:24;14.10;99.90
10175;DHT22;18221;38.704;0.152;2023-01-15T08:50:54;14.10;99.90
10175;DHT22;18221;38.704;0.152;2023-01-15T08:53:23;14.10;99.90
10175;DHT22;18221;38.704;0.152;2023-01-15T08:55:51;14.20;99.90
10175;DHT22;18221;38.704;0.152;2023-01-15T08:58:23;14.20;99.90
10175;DHT22;18221;38.704;0.152;2023-01-15T09:01:06;15.60;99.90
10175;DHT22;18221;38.704;0.152;2023-01-15T09:03:36;14.30;99.90
10175;DHT22;18221;38.704;0.152;2023-01-15T09:06:05;14.20;99.90
10175;DHT22;18221;38.704;0.152;2023-01-15T09:08:34;14.20;99.90
10175;DHT22;18221;38.704;0.152;2023-01-15T09:11:04;14.20;99.90
10175;DHT22;18221;38.704;0.152;2023-01-15T09:13:35;14.30;99.90
10175;DHT22;18221;38.704;0.152;2023-01-15T09:16:07;14.20;99.90
10175;DHT22;18221;38.704;0.152;2023-01-15T09:18:36;14.20;99.90
10175;DHT22;18221;38.704;0.152;2023-01-15T09:21:06;14.10;99.90
10175;DHT22;18221;38.704;0.152;2023-01-15T09:23:35;14.20;99.90
10175;DHT22;18221;38.704;0.152;2023-01-15T09:26:05;14.10;99.90
10175;DHT22;18221;38.704;0.152;2023-01-15T09:28:35;14.10;99.90
10175;DHT22;18221;38.704;0.152;2023-01-15T09:31:05;14.10;99.90
10175;DHT22;18221;38.704;0.152;2023-01-15T09:33:33;14.00;99.90
10175;DHT22;18221;38.704;0.152;2023-01-15T09:36:02;14.00;99.90
10175;DHT22;18221;38.704;0.152;2023-01-15T09:38:31;14.10;99.90
10175;DHT22;18221;38.704;0.152;2023-01-15T09:41:07;14.00;99.90
10175;DHT22;18221;38.704;0.152;2023-01-15T09:44:07;14.10;99.90
10175;DHT22;18221;38.704;0.152;2023-01-15T09:46:58;14.10;99.90
10175;DHT22;18221;38.704;0.152;2023-01-15T09:49:56;14.10;99.90
10175;DHT22;18221;38.704;0.152;2023-01-15T09:52:48;14.20;99.90
10175;DHT22;18221;38.704;0.152;2023-01-15T09:55:34;14.20;99.90
10175;DHT22;18221;38.704;0.152;2023-01-15T09:58:13;14.20;99.90
10175;DHT22;18221;38.704;0.152;2023-01-15T10:00:46;14.20;99.90
10175;DHT22;18221;38.704;0.152;2023-01-15T10:03:27;14.30;99.90
10175;DHT22;18221;38.704;0.152;2023-01-15T10:06:07;14.30;99.90
10175;DHT22;18221;38.704;0.152;2023-01-15T10:08:43;14.40;99.90
10175;DHT22;18221;38.704;0.152;2023-01-15T10:11:28;14.50;99.90
10175;DHT22;18221;38.704;0.152;2023-01-15T10:14:33;14.40;99.90
10175;DHT22;18221;38.704;0.152;2023-01-15T10:17:24;14.40;99.90
10175;DHT22;18221;38.704;0.152;2023-01-15T10:19:57;14.50;99.90
10175;DHT22;18221;38.704;0.152;2023-01-15T10:22:39;14.60;99.90
10175;DHT22;18221;38.704;0.152;2023-01-15T10:25:23;14.70;99.90
10175;DHT22;18221;38.704;0.152;2023-01-15T10:28:04;14.80;99.90
10175;DHT22;18221;38.704;0.152;2023-01-15T10:30:46;15.00;99.90
10175;DHT22;18221;38.704;0.152;2023-01-15T10:33:40;14.90;99.90
10175;DHT22;18221;38.704;0.152;2023-01-15T10:36:26;15.00;99.90
10175;DHT22;18221;38.704;0.152;2023-01-15T10:39:03;14.90;99.90
10175;DHT22;18221;38.704;0.152;2023-01-15T10:41:51;15.00;99.90
10175;DHT22;18221;38.704;0.152;2023-01-15T10:44:42;14.90;99.90
10175;DHT22;18221;38.704;0.152;2023-01-15T10:47:25;14.80;99.90
10175;DHT22;18221;38.704;0.152;2023-01-15T10:50:00;14.80;99.90
10175;DHT22;18221;38.704;0.152;2023-01-15T10:52:34;14.70;99.90
10175;DHT22;18221;38.704;0.152;2023-01-15T10:55:15;14.70;99.90
10175;DHT22;18221;38.704;0.152;2023-01-15T10:57:54;14.70;99.90
10175;DHT22;18221;38.704;0.152;2023-01-15T11:00:30;14.70;99.90
10175;DHT22;18221;38.704;0.152;2023-01-15T11:03:01;14.70;99.90
10175;DHT22;18221;38.704;0.152;2023-01-15T11:05:34;14.50;99.90
10175;DHT22;18221;38.704;0.152;2023-01-15T11:08:09;14.80;99.90
10175;DHT22;18221;38.704;0.152;2023-01-15T11:10:44;14.90;99.90
10175;DHT22;18221;38.704;0.152;2023-01-15T11:13:19;14.90;99.90
10175;DHT22;18221;38.704;0.152;2023-01-15T11:16:12;14.90;99.90
10175;DHT22;18221;38.704;0.152;2023-01-15T11:19:09;15.00;99.90
10175;DHT22;18221;38.704;0.152;2023-01-15T11:22:08;15.10;99.90
10175;DHT22;18221;38.704;0.152;2023-01-15T11:24:48;15.10;99.90
10175;DHT22;18221;38.704;0.152;2023-01-15T11:27:19;15.20;99.90
10175;DHT22;18221;38.704;0.152;2023-01-15T11:29:51;15.30;99.90
10175;DHT22;18221;38.704;0.152;2023-01-15T11:32:27;15.40;99.90
10175;DHT22;18221;38.704;0.152;2023-01-15T11:34:59;15.50;99.90
10175;DHT22;18221;38.704;0.152;2023-01-15T11:37:29;15.60;99.90
10175;DHT22;18221;38.704;0.152;2023-01-15T11:40:00;16.10;99.90
10175;DHT22;18221;38.704;0.152;2023-01-15T11:42:36;15.80;99.90
10175;DHT22;18221;38.704;0.152;2023-01-15T11:45:22;15.90;99.90
10175;DHT22;18221;38.704;0.152;2023-01-15T11:48:14;16.00;99.90
10175;DHT22;18221;38.704;0.152;2023-01-15T11:51:04;16.00;99.90
10175;DHT22;18221;38.704;0.152;2023-01-15T11:53:39;16.10;99.90
10175;DHT22;18221;38.704;0.152;2023-01-15T11:56:15;16.30;99.90
10175;DHT22;18221;38.704;0.152;2023-01-15T11:58:50;16.40;99.90
10175;DHT22;18221;38.704;0.152;2023-01-15T12:01:23;16.60;99.90
10175;DHT22;18221;38.704;0.152;2023-01-15T12:03:55;16.50;99.90
10175;DHT22;18221;38.704;0.152;2023-01-15T12:06:26;16.60;99.90
10175;DHT22;18221;38.704;0.152;2023-01-15T12:09:03;16.60;99.90
10175;DHT22;18221;38.704;0.152;2023-01-15T12:11:53;16.70;99.90
10175;DHT22;18221;38.704;0.152;2023-01-15T12:14:40;16.80;99.90
10175;DHT22;18221;38.704;0.152;2023-01-15T12:17:51;16.80;99.90
10175;DHT22;18221;38.704;0.152;2023-01-15T12:20:32;16.70;99.90
10175;DHT22;18221;38.704;0.152;2023-01-15T12:23:33;16.30;99.90
10175;DHT22;18221;38.704;0.152;2023-01-15T12:26:18;16.80;99.90
10175;DHT22;18221;38.704;0.152;2023-01-15T12:29:08;16.80;99.90
10175;DHT22;18221;38.704;0.152;2023-01-15T12:31:46;16.80;99.90
10175;DHT22;18221;38.704;0.152;2023-01-15T12:34:21;16.90;99.90
10175;DHT22;18221;38.704;0.152;2023-01-15T12:36:56;16.80;99.90
10175;DHT22;18221;38.704;0.152;2023-01-15T12:39:34;16.80;99.90
10175;DHT22;18221;38.704;0.152;2023-01-15T12:42:16;16.90;99.90
10175;DHT22;18221;38.704;0.152;2023-01-15T12:45:10;17.10;99.90
10175;DHT22;18221;38.704;0.152;2023-01-15T12:47:46;17.10;99.90
10175;DHT22;18221;38.704;0.152;2023-01-15T12:50:34;17.10;99.90
10175;DHT22;18221;38.704;0.152;2023-01-15T12:53:12;17.20;99.90
10175;DHT22;18221;38.704;0.152;2023-01-15T12:55:48;17.30;99.90
10175;DHT22;18221;38.704;0.152;2023-01-15T12:58:36;17.30;99.90
10175;DHT22;18221;38.704;0.152;2023-01-15T13:01:15;17.30;99.90
10175;DHT22;18221;38.704;0.152;2023-01-15T13:04:11;17.40;99.90
10175;DHT22;18221;38.704;0.152;2023-01-15T13:06:46;17.40;99.90
10175;DHT22;18221;38.704;0.152;2023-01-15T13:09:29;17.40;99.90
10175;DHT22;18221;38.704;0.152;2023-01-15T13:12:11;17.40;99.90
10175;DHT22;18221;38.704;0.152;2023-01-15T13:14:40;17.40;99.90
10175;DHT22;18221;38.704;0.152;2023-01-15T13:17:16;17.30;99.90
10175;DHT22;18221;38.704;0.152;2023-01-15T13:20:10;17.30;99.90
10175;DHT22;18221;38.704;0.152;2023-01-15T13:22:56;17.30;99.90
10175;DHT22;18221;38.704;0.152;2023-01-15T13:25:46;17.40;99.90
10175;DHT22;18221;38.704;0.152;2023-01-15T13:28:42;17.50;99.90
10175;DHT22;18221;38.704;0.152;2023-01-15T13:31:46;17.50;99.90
10175;DHT22;18221;38.704;0.152;2023-01-15T13:34:30;17.60;99.90
10175;DHT22;18221;38.704;0.152;2023-01-15T13:37:08;17.70;99.90
10175;DHT22;18221;38.704;0.152;2023-01-15T13:39:46;17.80;99.90
10175;DHT22;18221;38.704;0.152;2023-01-15T13:42:19;17.70;99.90
10175;DHT22;18221;38.704;0.152;2023-01-15T13:45:22;17.70;99.90
10175;DHT22;18221;38.704;0.152;2023-01-15T13:48:04;17.80;99.90
10175;DHT22;18221;38.704;0.152;2023-01-15T13:50:39;17.80;99.90
10175;DHT22;18221;38.704;0.152;2023-01-15T13:53:17;17.80;99.90
10175;DHT22;18221;38.704;0.152;2023-01-15T13:55:55;17.80;99.90
10175;DHT22;18221;38.704;0.152;2023-01-15T13:58:29;17.80;99.90
10175;DHT22;18221;38.704;0.152;2023-01-15T14:01:03;17.80;99.90
10175;DHT22;18221;38.704;0.152;2023-01-15T14:03:34;17.70;99.90
10175;DHT22;18221;38.704;0.152;2023-01-15T14:06:08;17.60;99.90
10175;DHT22;18221;38.704;0.152;2023-01-15T14:08:39;17.60;99.90
10175;DHT22;18221;38.704;0.152;2023-01-15T14:11:32;17.70;99.90
10175;DHT22;18221;38.704;0.152;2023-01-15T14:20:55;17.70;99.90
10175;DHT22;18221;38.704;0.152;2023-01-15T14:23:53;17.70;99.90
10175;DHT22;18221;38.704;0.152;2023-01-15T14:26:44;17.70;99.90
10175;DHT22;18221;38.704;0.152;2023-01-15T14:29:48;17.70;99.90
10175;DHT22;18221;38.704;0.152;2023-01-15T14:32:47;17.70;99.90
10175;DHT22;18221;38.704;0.152;2023-01-15T14:35:25;17.70;99.90
10175;DHT22;18221;38.704;0.152;2023-01-15T14:37:58;17.80;99.90
10175;DHT22;18221;38.704;0.152;2023-01-15T14:40:33;17.70;99.90
10175;DHT22;18221;38.704;0.152;2023-01-15T14:43:09;17.70;99.90
10175;DHT22;18221;38.704;0.152;2023-01-15T14:45:46;17.70;99.90
10175;DHT22;18221;38.704;0.152;2023-01-15T14:48:19;17.50;99.90
10175;DHT22;18221;38.704;0.152;2023-01-15T14:51:08;17.70;99.90
10175;DHT22;18221;38.704;0.152;2023-01-15T14:53:42;17.80;99.90
10175;DHT22;18221;38.704;0.152;2023-01-15T14:56:18;17.80;99.90
10175;DHT22;18221;38.704;0.152;2023-01-15T14:58:58;17.90;99.90
10175;DHT22;18221;38.704;0.152;2023-01-15T15:01:37;17.90;99.90
10175;DHT22;18221;38.704;0.152;2023-01-15T15:04:16;18.10;99.90
10175;DHT22;18221;38.704;0.152;2023-01-15T15:06:52;18.20;99.90
10175;DHT22;18221;38.704;0.152;2023-01-15T15:09:30;18.20;99.90
10175;DHT22;18221;38.704;0.152;2023-01-15T15:12:20;18.20;99.90
10175;DHT22;18221;38.704;0.152;2023-01-15T15:15:02;18.20;99.90
10175;DHT22;18221;38.704;0.152;2023-01-15T15:17:42;18.20;99.90
10175;DHT22;18221;38.704;0.152;2023-01-15T15:20:27;18.10;99.90
10175;DHT22;18221;38.704;0.152;2023-01-15T15:23:11;18.10;99.90
10175;DHT22;18221;38.704;0.152;2023-01-15T15:25:53;18.00;99.90
10175;DHT22;18221;38.704;0.152;2023-01-15T15:28:23;18.00;99.90
10175;DHT22;18221;38.704;0.152;2023-01-15T15:30:53;17.90;99.90
10175;DHT22;18221;38.704;0.152;2023-01-15T15:33:30;17.90;99.90
10175;DHT22;18221;38.704;0.152;2023-01-15T15:36:07;17.80;99.90
10175;DHT22;18221;38.704;0.152;2023-01-15T15:38:36;17.80;99.90
10175;DHT22;18221;38.704;0.152;2023-01-15T15:41:12;17.70;99.90
10175;DHT22;18221;38.704;0.152;2023-01-15T15:43:44;17.70;99.90
10175;DHT22;18221;38.704;0.152;2023-01-15T15:46:35;17.60;99.90
10175;DHT22;18221;38.704;0.152;2023-01-15T15:49:21;17.40;99.90
10175;DHT22;18221;38.704;0.152;2023-01-15T15:51:51;17.30;99.90
10175;DHT22;18221;38.704;0.152;2023-01-15T15:54:22;17.20;99.90
10175;DHT22;18221;38.704;0.152;2023-01-15T15:56:59;17.20;99.90
10175;DHT22;18221;38.704;0.152;2023-01-15T15:59:33;17.20;99.90
10175;DHT22;18221;38.704;0.152;2023-01-15T16:02:18;17.20;99.90
10175;DHT22;18221;38.704;0.152;2023-01-15T16:04:51;17.20;99.90
10175;DHT22;18221;38.704;0.152;2023-01-15T16:07:23;17.50;99.90
10175;DHT22;18221;38.704;0.152;2023-01-15T16:09:56;17.20;99.90
10175;DHT22;18221;38.704;0.152;2023-01-15T16:12:30;17.20;99.90
10175;DHT22;18221;38.704;0.152;2023-01-15T16:15:04;17.20;99.90
10175;DHT22;18221;38.704;0.152;2023-01-15T16:17:33;17.10;99.90
10175;DHT22;18221;38.704;0.152;2023-01-15T16:20:11;17.10;99.90
10175;DHT22;18221;38.704;0.152;2023-01-15T16:22:44;17.00;99.90
10175;DHT22;18221;38.704;0.152;2023-01-15T16:25:23;17.00;99.90
10175;DHT22;18221;38.704;0.152;2023-01-15T16:27:57;16.90;99.90
10175;DHT22;18221;38.704;0.152;2023-01-15T16:30:27;16.90;99.90
10175;DHT22;18221;38.704;0.152;2023-01-15T16:32:59;16.90;99.90